Time;durP1;ratioP1;P1;durP2;ratioP2;P2;SDS_P1;SDS_P2;PMS_P1;PMS_P2;Temp;Humidity;BMP_temperature;BMP_pressure;BME280_temperature;BME280_humidity;BME280_pressure;Samples;Min_cycle;Max_cycle;Signal;HPM_P1;HPM_P2
2021/06/21 00:03:34;;;;;;;5.72;4.25;;;;;;;;;;8346604;28;20486;-67
2021/06/21 00:07:40;;;;;;;4.43;4.03;;;;;;;;;;8306065;28;20397;-68
2021/06/21 00:11:45;;;;;;;8.50;4.13;;;;;;;;;;8305264;28;20363;-67
2021/06/21 00:15:52;;;;;;;6.38;4.28;;;;;;;;;;8325015;28;20374;-68
2021/06/21 00:19:58;;;;;;;8.10;3.93;;;;;;;;;;8322743;28;20418;-67
2021/06/21 00:24:03;;;;;;;9.75;4.25;;;;;;;;;;8324569;28;20048;-68
2021/06/21 00:28:08;;;;;;;6.63;4.03;;;;;;;;;;8323262;28;20402;-67
2021/06/21 00:32:14;;;;;;;7.13;4.40;;;;;;;;;;8323320;28;20063;-68
2021/06/21 00:36:19;;;;;;;8.25;3.90;;;;;;;;;;8324064;28;20466;-69
2021/06/21 00:40:26;;;;;;;7.97;3.60;;;;;;;;;;8311929;28;20359;-67
2021/06/21 00:44:31;;;;;;;10.18;3.92;;;;;;;;;;8327875;28;20470;-67
2021/06/21 00:48:37;;;;;;;5.78;3.65;;;;;;;;;;8312385;28;20388;-68
2021/06/21 00:52:43;;;;;;;10.27;3.65;;;;;;;;;;8311043;28;20367;-69
2021/06/21 00:56:49;;;;;;;5.90;3.45;;;;;;;;;;8328076;28;20398;-67
2021/06/21 01:00:55;;;;;;;9.70;3.65;;;;;;;;;;8327467;28;20363;-68
2021/06/21 01:05:01;;;;;;;10.07;4.22;;;;;;;;;;8311938;28;20465;-68
2021/06/21 01:09:07;;;;;;;9.23;4.18;;;;;;;;;;8326549;28;20478;-67
2021/06/21 01:13:43;;;;;;;12.52;3.80;;;;;;;;;;8328507;28;20462;-68
2021/06/21 01:18:12;;;;;;;7.00;3.45;;;;;;;;;;8329147;28;20382;-68
2021/06/21 01:23:01;;;;;;;5.25;3.72;;;;;;;;;;8312423;28;20363;-68
2021/06/21 01:27:23;;;;;;;13.65;3.75;;;;;;;;;;8327991;28;20478;-68
2021/06/21 01:32:17;;;;;;;6.38;3.38;;;;;;;;;;8311476;28;20446;-68
2021/06/21 01:36:25;;;;;;;5.60;3.38;;;;;;;;;;8267626;28;20372;-67
2021/06/21 01:40:39;;;;;;;8.38;3.70;;;;;;;;;;8326789;28;20386;-68
2021/06/21 01:44:50;;;;;;;5.65;3.38;;;;;;;;;;8328180;28;20359;-68
2021/06/21 01:49:01;;;;;;;7.90;3.35;;;;;;;;;;8326623;28;20361;-68
2021/06/21 01:53:15;;;;;;;10.65;3.80;;;;;;;;;;8326453;28;20466;-68
2021/06/21 01:57:30;;;;;;;8.52;3.97;;;;;;;;;;8327050;28;20459;-68
2021/06/21 02:01:37;;;;;;;6.75;3.75;;;;;;;;;;8327664;28;20459;-68
2021/06/21 02:05:43;;;;;;;9.98;3.90;;;;;;;;;;8326992;28;20485;-67
2021/06/21 02:09:49;;;;;;;4.18;3.28;;;;;;;;;;8328034;28;20076;-68
2021/06/21 02:13:56;;;;;;;9.13;3.67;;;;;;;;;;8326036;28;20367;-68
2021/06/21 02:18:02;;;;;;;7.07;3.50;;;;;;;;;;8323944;28;20360;-67
2021/06/21 02:22:08;;;;;;;4.63;3.47;;;;;;;;;;8307934;28;20052;-67
2021/06/21 02:26:14;;;;;;;6.32;3.35;;;;;;;;;;8309812;28;20044;-68
2021/06/21 02:30:22;;;;;;;7.95;3.92;;;;;;;;;;8325378;28;20382;-67
2021/06/21 02:34:27;;;;;;;7.50;3.53;;;;;;;;;;8325759;28;20447;-68
2021/06/21 02:38:33;;;;;;;6.95;3.72;;;;;;;;;;8325261;28;20052;-68
2021/06/21 02:42:40;;;;;;;9.68;3.67;;;;;;;;;;8326193;28;20526;-68
2021/06/21 02:46:46;;;;;;;8.53;4.00;;;;;;;;;;8308427;28;20479;-67
2021/06/21 02:50:53;;;;;;;5.93;3.58;;;;;;;;;;8326350;28;20352;-68
2021/06/21 02:55:18;;;;;;;7.82;3.88;;;;;;;;;;8326479;28;20363;-68
2021/06/21 02:59:26;;;;;;;9.23;3.67;;;;;;;;;;8325606;28;20418;-69
2021/06/21 03:03:37;;;;;;;6.25;3.72;;;;;;;;;;8324374;28;20485;-69
2021/06/21 03:07:43;;;;;;;9.75;4.18;;;;;;;;;;8324883;28;20572;-67
2021/06/21 03:11:54;;;;;;;10.55;3.85;;;;;;;;;;8325402;28;20056;-67
2021/06/21 03:16:01;;;;;;;5.57;3.90;;;;;;;;;;8324573;28;20390;-67
2021/06/21 03:20:08;;;;;;;8.13;4.22;;;;;;;;;;8290157;28;20507;-67
2021/06/21 03:24:15;;;;;;;8.68;4.28;;;;;;;;;;8292055;28;20456;-67
2021/06/21 03:28:20;;;;;;;9.05;3.88;;;;;;;;;;8291419;28;20074;-68
2021/06/21 03:32:35;;;;;;;5.88;3.83;;;;;;;;;;8292880;28;20460;-68
2021/06/21 03:36:40;;;;;;;8.80;4.15;;;;;;;;;;8305443;28;20460;-68
2021/06/21 03:40:49;;;;;;;7.05;3.92;;;;;;;;;;8306457;28;20398;-68
2021/06/21 03:44:55;;;;;;;6.27;3.87;;;;;;;;;;8289705;28;20479;-68
2021/06/21 03:49:00;;;;;;;17.48;4.00;;;;;;;;;;8290839;28;20471;-68
2021/06/21 03:53:07;;;;;;;8.65;4.03;;;;;;;;;;8288439;28;20448;-68
2021/06/21 03:57:12;;;;;;;4.47;3.37;;;;;;;;;;8289447;28;20467;-68
2021/06/21 04:01:19;;;;;;;5.53;3.55;;;;;;;;;;8290712;28;20486;-69
2021/06/21 04:05:25;;;;;;;7.32;4.22;;;;;;;;;;8289150;28;20448;-68
2021/06/21 04:09:31;;;;;;;8.75;3.75;;;;;;;;;;8305270;28;20382;-68
2021/06/21 04:13:36;;;;;;;8.90;4.15;;;;;;;;;;8290476;28;20349;-68
2021/06/21 04:17:42;;;;;;;12.15;4.05;;;;;;;;;;8297162;28;20367;-68
2021/06/21 04:21:52;;;;;;;6.65;3.20;;;;;;;;;;8322909;28;20369;-68
2021/06/21 04:25:58;;;;;;;8.60;3.63;;;;;;;;;;8322667;28;20113;-68
2021/06/21 04:30:08;;;;;;;6.40;3.90;;;;;;;;;;8322879;28;20490;-68
2021/06/21 04:34:13;;;;;;;8.55;3.83;;;;;;;;;;8322158;28;20363;-68
2021/06/21 04:38:22;;;;;;;9.20;3.55;;;;;;;;;;8324568;28;20355;-68
2021/06/21 04:42:28;;;;;;;13.27;3.80;;;;;;;;;;8323230;28;20070;-68
2021/06/21 04:46:34;;;;;;;5.40;3.15;;;;;;;;;;8322677;28;20490;-68
2021/06/21 04:50:41;;;;;;;6.82;3.65;;;;;;;;;;8322688;28;20439;-68
2021/06/21 04:55:00;;;;;;;7.00;3.63;;;;;;;;;;8321458;28;20523;-68
2021/06/21 04:59:06;;;;;;;5.63;3.30;;;;;;;;;;8322606;28;20801;-68
2021/06/21 05:03:12;;;;;;;6.22;3.10;;;;;;;;;;8322778;28;20479;-68
2021/06/21 05:07:18;;;;;;;6.53;2.90;;;;;;;;;;8322417;28;20475;-69
2021/06/21 05:11:24;;;;;;;6.82;3.33;;;;;;;;;;8322928;28;20493;-69
2021/06/21 05:15:29;;;;;;;13.40;2.83;;;;;;;;;;8324056;28;20433;-69
2021/06/21 05:19:36;;;;;;;7.00;3.22;;;;;;;;;;8303790;28;20405;-69
2021/06/21 05:23:41;;;;;;;7.87;2.37;;;;;;;;;;8305157;28;20448;-68
2021/06/21 05:27:47;;;;;;;8.85;2.58;;;;;;;;;;8294976;28;20383;-69
2021/06/21 05:31:53;;;;;;;7.18;1.90;;;;;;;;;;8295091;28;20447;-69
2021/06/21 05:35:58;;;;;;;6.60;2.40;;;;;;;;;;8294210;28;20476;-68
2021/06/21 05:40:06;;;;;;;10.20;2.58;;;;;;;;;;8309403;28;20380;-70
2021/06/21 05:44:11;;;;;;;10.02;2.35;;;;;;;;;;8296987;28;20397;-69
2021/06/21 05:48:17;;;;;;;12.43;2.55;;;;;;;;;;8294329;28;20501;-70
2021/06/21 05:52:22;;;;;;;9.57;2.30;;;;;;;;;;8294768;28;20394;-69
2021/06/21 05:56:28;;;;;;;10.43;2.55;;;;;;;;;;8292954;28;20387;-69
2021/06/21 06:00:33;;;;;;;9.63;2.85;;;;;;;;;;8293828;28;20355;-71
2021/06/21 06:04:38;;;;;;;8.60;2.65;;;;;;;;;;8294867;28;20390;-68
2021/06/21 06:08:44;;;;;;;7.50;2.28;;;;;;;;;;8295216;28;20349;-69
2021/06/21 06:12:49;;;;;;;8.40;1.90;;;;;;;;;;8292778;28;20479;-69
2021/06/21 06:16:55;;;;;;;12.15;2.33;;;;;;;;;;8295867;28;20451;-69
2021/06/21 06:20:59;;;;;;;6.70;1.65;;;;;;;;;;8325039;28;20413;-70
2021/06/21 06:25:16;;;;;;;5.97;2.00;;;;;;;;;;8327996;28;20497;-70
2021/06/21 06:29:23;;;;;;;5.38;2.00;;;;;;;;;;8326466;28;20516;-69
2021/06/21 06:33:28;;;;;;;5.45;1.85;;;;;;;;;;8326269;28;20455;-69
2021/06/21 06:37:34;;;;;;;5.90;1.88;;;;;;;;;;8323923;28;20402;-69
2021/06/21 06:41:39;;;;;;;10.10;2.85;;;;;;;;;;8325994;28;20355;-69
2021/06/21 06:45:44;;;;;;;10.05;2.20;;;;;;;;;;8326131;28;20377;-69
2021/06/21 06:49:50;;;;;;;7.40;2.25;;;;;;;;;;8305226;28;20375;-69
2021/06/21 06:54:02;;;;;;;9.38;1.83;;;;;;;;;;8327201;28;20462;-70
2021/06/21 06:58:07;;;;;;;8.55;2.47;;;;;;;;;;8323548;28;20355;-69
2021/06/21 07:02:21;;;;;;;7.82;2.08;;;;;;;;;;8324535;28;20371;-68
2021/06/21 07:06:27;;;;;;;9.23;1.55;;;;;;;;;;8323670;28;20459;-70
2021/06/21 07:10:32;;;;;;;6.88;1.52;;;;;;;;;;8322134;28;20493;-69
2021/06/21 07:14:38;;;;;;;8.63;1.70;;;;;;;;;;8323884;28;20048;-70
2021/06/21 07:18:44;;;;;;;12.10;1.90;;;;;;;;;;8306659;28;20070;-69
2021/06/21 07:22:49;;;;;;;12.52;1.70;;;;;;;;;;8325791;28;20378;-70
2021/06/21 07:26:54;;;;;;;6.70;1.60;;;;;;;;;;8308946;28;20062;-69
2021/06/21 07:30:59;;;;;;;7.20;1.90;;;;;;;;;;8325516;28;20489;-71
2021/06/21 07:35:06;;;;;;;9.33;2.03;;;;;;;;;;8327872;28;20497;-70
2021/06/21 07:39:12;;;;;;;;;;;;;;;;;;8326709;28;20359;-70
2021/06/21 07:43:17;;;;;;;12.27;1.90;;;;;;;;;;8326239;28;20365;-70
2021/06/21 07:47:23;;;;;;;6.18;1.48;;;;;;;;;;8325561;28;20056;-71
2021/06/21 07:51:31;;;;;;;12.35;1.70;;;;;;;;;;8324175;28;20481;-71
2021/06/21 07:55:37;;;;;;;9.73;1.52;;;;;;;;;;8308009;28;20376;-70
2021/06/21 07:59:42;;;;;;;7.82;1.63;;;;;;;;;;8325165;28;20382;-70
2021/06/21 08:03:47;;;;;;;6.63;1.70;;;;;;;;;;8325526;28;20056;-70
2021/06/21 08:07:52;;;;;;;9.40;2.70;;;;;;;;;;8324867;28;20078;-68
2021/06/21 08:11:58;;;;;;;8.88;1.98;;;;;;;;;;8324213;28;20566;-70
2021/06/21 08:16:04;;;;;;;6.82;1.92;;;;;;;;;;8325574;28;20364;-70
2021/06/21 08:20:12;;;;;;;6.20;1.90;;;;;;;;;;8290688;28;20466;-70
2021/06/21 08:24:17;;;;;;;7.78;2.00;;;;;;;;;;8291561;28;20349;-70
2021/06/21 08:28:23;;;;;;;8.13;2.30;;;;;;;;;;8291758;28;20078;-68
2021/06/21 08:32:28;;;;;;;6.17;1.37;;;;;;;;;;8292219;28;20454;-70
2021/06/21 08:36:34;;;;;;;7.90;1.80;;;;;;;;;;8292015;28;20347;-69
2021/06/21 08:40:41;;;;;;;9.85;1.58;;;;;;;;;;8292544;28;20450;-69
2021/06/21 08:44:45;;;;;;;11.77;1.80;;;;;;;;;;8293343;28;20049;-68
2021/06/21 08:48:55;;;;;;;5.70;1.60;;;;;;;;;;8293686;28;20367;-72
2021/06/21 08:53:01;;;;;;;4.55;1.40;;;;;;;;;;8305426;28;20056;-70
2021/06/21 08:57:11;;;;;;;10.63;1.95;;;;;;;;;;8306586;28;20414;-68
2021/06/21 09:01:16;;;;;;;;;;;;;;;;;;8298922;28;20509;-68
2021/06/21 09:05:22;;;;;;;6.28;1.65;;;;;;;;;;8299201;28;20343;-69
2021/06/21 09:09:38;;;;;;;8.17;2.23;;;;;;;;;;8298555;28;20402;-69
2021/06/21 09:13:44;;;;;;;7.32;1.60;;;;;;;;;;8312472;28;20348;-68
2021/06/21 09:17:57;;;;;;;4.35;1.25;;;;;;;;;;8304706;28;20066;-68
2021/06/21 09:22:03;;;;;;;4.22;1.35;;;;;;;;;;8329291;28;20375;-68
2021/06/21 09:26:33;;;;;;;11.25;1.85;;;;;;;;;;8328387;28;20390;-68
2021/06/21 09:30:51;;;;;;;11.75;1.50;;;;;;;;;;8330145;28;20387;-69
2021/06/21 09:34:57;;;;;;;7.47;2.00;;;;;;;;;;8312638;28;20455;-69
2021/06/21 09:39:20;;;;;;;7.60;1.55;;;;;;;;;;8313431;28;20475;-68
2021/06/21 09:43:34;;;;;;;6.03;1.40;;;;;;;;;;8330176;28;20387;-68
2021/06/21 09:47:41;;;;;;;5.40;1.77;;;;;;;;;;8313006;28;20055;-68
2021/06/21 09:51:46;;;;;;;10.25;2.08;;;;;;;;;;8330640;28;20401;-68
2021/06/21 09:55:52;;;;;;;10.15;1.75;;;;;;;;;;8329565;28;20461;-69
2021/06/21 09:59:57;;;;;;;3.63;1.00;;;;;;;;;;8330521;28;20451;-69
2021/06/21 10:04:03;;;;;;;6.25;1.45;;;;;;;;;;8312865;28;20358;-68
2021/06/21 10:08:15;;;;;;;7.10;1.35;;;;;;;;;;8326418;28;20401;-69
2021/06/21 10:12:22;;;;;;;6.32;1.48;;;;;;;;;;8326598;28;20463;-69
2021/06/21 10:16:27;;;;;;;8.57;2.03;;;;;;;;;;8327481;28;20393;-68
2021/06/21 10:20:35;;;;;;;;;;;;;;;;;;8310419;28;20587;-68
2021/06/21 10:24:39;;;;;;;8.90;2.17;;;;;;;;;;8327511;28;19920;-69
2021/06/21 10:28:46;;;;;;;9.18;1.42;;;;;;;;;;8328094;28;20086;-69
2021/06/21 10:32:53;;;;;;;5.57;1.75;;;;;;;;;;8329123;28;20447;-68
2021/06/21 10:37:00;;;;;;;8.82;1.50;;;;;;;;;;8309333;28;20070;-69
2021/06/21 10:41:09;;;;;;;4.70;1.35;;;;;;;;;;8327611;28;20051;-68
2021/06/21 10:45:24;;;;;;;11.15;1.50;;;;;;;;;;8326360;28;20180;-69
2021/06/21 10:49:32;;;;;;;8.32;1.80;;;;;;;;;;8309390;28;20402;-68
2021/06/21 10:53:54;;;;;;;12.07;1.65;;;;;;;;;;8311234;28;20462;-69
2021/06/21 10:58:00;;;;;;;7.43;1.73;;;;;;;;;;8327163;28;20490;-69
2021/06/21 11:02:07;;;;;;;8.05;1.60;;;;;;;;;;8309490;28;20386;-69
2021/06/21 11:06:22;;;;;;;4.20;1.67;;;;;;;;;;8326335;28;20358;-69
2021/06/21 11:10:31;;;;;;;10.35;1.85;;;;;;;;;;8324809;28;20467;-69
2021/06/21 11:14:38;;;;;;;13.23;1.40;;;;;;;;;;8325013;28;20458;-70
2021/06/21 11:18:46;;;;;;;10.10;1.55;;;;;;;;;;8324770;28;20394;-68
2021/06/21 11:22:51;;;;;;;8.45;1.25;;;;;;;;;;8323465;28;20464;-68
2021/06/21 11:27:08;;;;;;;2.63;1.02;;;;;;;;;;8322940;28;20358;-69
2021/06/21 11:31:24;;;;;;;11.45;1.75;;;;;;;;;;8326278;28;20372;-70
2021/06/21 11:35:57;;;;;;;12.38;1.50;;;;;;;;;;8306111;28;20477;-71
2021/06/21 11:40:15;;;;;;;13.35;2.35;;;;;;;;;;8325407;28;20047;-70
2021/06/21 11:44:39;;;;;;;9.73;1.15;;;;;;;;;;8324432;28;20465;-71
2021/06/21 11:48:44;;;;;;;6.30;1.23;;;;;;;;;;8324579;28;20352;-71
2021/06/21 11:52:49;;;;;;;10.63;1.30;;;;;;;;;;8326146;28;20391;-71
2021/06/21 11:56:59;;;;;;;5.67;1.40;;;;;;;;;;8324085;28;20482;-70
2021/06/21 12:01:18;;;;;;;6.97;1.45;;;;;;;;;;8324804;28;20052;-70
2021/06/21 12:05:24;;;;;;;5.95;1.13;;;;;;;;;;8324310;28;20106;-71
2021/06/21 12:09:29;;;;;;;7.13;1.35;;;;;;;;;;8322905;28;20358;-71
2021/06/21 12:13:34;;;;;;;5.25;1.63;;;;;;;;;;8305367;28;20475;-71
2021/06/21 12:17:40;;;;;;;5.88;1.55;;;;;;;;;;8322501;28;20491;-71
2021/06/21 12:21:47;;;;;;;7.13;1.75;;;;;;;;;;8323214;28;20455;-70
2021/06/21 12:25:52;;;;;;;11.48;1.40;;;;;;;;;;8324037;28;20367;-70
2021/06/21 12:29:58;;;;;;;9.38;1.27;;;;;;;;;;8303990;28;20066;-70
2021/06/21 12:34:03;;;;;;;9.65;1.20;;;;;;;;;;8304725;28;20067;-70
2021/06/21 12:38:15;;;;;;;6.50;1.65;;;;;;;;;;8305421;28;20089;-70
2021/06/21 12:42:21;;;;;;;7.03;1.58;;;;;;;;;;8322438;28;20548;-71
2021/06/21 12:46:31;;;;;;;12.48;2.20;;;;;;;;;;8322247;28;20493;-71
2021/06/21 12:50:37;;;;;;;5.07;1.27;;;;;;;;;;8321145;28;20340;-70
2021/06/21 12:54:42;;;;;;;9.25;1.63;;;;;;;;;;8305496;28;20382;-70
2021/06/21 12:58:47;;;;;;;3.72;1.20;;;;;;;;;;8305146;28;20360;-70
2021/06/21 13:03:25;;;;;;;5.50;1.45;;;;;;;;;;8321793;28;20489;-70
2021/06/21 13:07:31;;;;;;;6.65;1.25;;;;;;;;;;8306253;28;20048;-69
2021/06/21 13:11:56;;;;;;;7.10;1.58;;;;;;;;;;8322708;28;20343;-70
2021/06/21 13:16:09;;;;;;;6.40;1.23;;;;;;;;;;8322119;28;20451;-71
2021/06/21 13:20:17;;;;;;;4.70;1.15;;;;;;;;;;8286704;28;20414;-70
2021/06/21 13:24:34;;;;;;;9.32;1.45;;;;;;;;;;8289757;28;20370;-71
2021/06/21 13:28:43;;;;;;;5.07;1.60;;;;;;;;;;8289904;28;20391;-69
2021/06/21 13:32:48;;;;;;;7.38;1.45;;;;;;;;;;8287952;28;20066;-69
2021/06/21 13:36:58;;;;;;;6.57;1.73;;;;;;;;;;8304213;28;20352;-68
2021/06/21 13:41:26;;;;;;;8.93;1.65;;;;;;;;;;8287765;28;20374;-69
2021/06/21 13:45:34;;;;;;;4.90;1.58;;;;;;;;;;8290919;28;20384;-69
2021/06/21 13:49:59;;;;;;;5.20;1.17;;;;;;;;;;8295314;28;20476;-69
2021/06/21 13:54:09;;;;;;;5.70;1.37;;;;;;;;;;8295211;28;20383;-68
2021/06/21 13:58:16;;;;;;;8.90;1.52;;;;;;;;;;8294748;28;20383;-68
2021/06/21 14:02:39;;;;;;;6.22;1.42;;;;;;;;;;8308806;28;20363;-68
2021/06/21 14:06:45;;;;;;;7.03;1.40;;;;;;;;;;8291573;28;20059;-68
2021/06/21 14:10:54;;;;;;;9.85;1.60;;;;;;;;;;8292597;28;20057;-69
2021/06/21 14:14:59;;;;;;;4.43;1.20;;;;;;;;;;8293768;28;20075;-72
2021/06/21 14:19:05;;;;;;;6.88;1.30;;;;;;;;;;8310099;28;20052;-68
2021/06/21 14:23:10;;;;;;;6.03;1.15;;;;;;;;;;8326970;28;20052;-68
2021/06/21 14:27:15;;;;;;;7.40;1.10;;;;;;;;;;8327596;28;20459;-68
2021/06/21 14:31:21;;;;;;;6.22;1.30;;;;;;;;;;8326805;28;20438;-70
2021/06/21 14:35:27;;;;;;;7.28;1.40;;;;;;;;;;8325120;28;20051;-69
2021/06/21 14:39:32;;;;;;;10.20;1.43;;;;;;;;;;8326378;28;20476;-69
2021/06/21 14:43:39;;;;;;;8.20;1.42;;;;;;;;;;8325670;28;20769;-69
2021/06/21 14:47:44;;;;;;;3.92;1.10;;;;;;;;;;8309055;28;20073;-69
2021/06/21 14:51:49;;;;;;;12.32;1.58;;;;;;;;;;8325156;28;20356;-69
2021/06/21 14:55:56;;;;;;;11.57;1.50;;;;;;;;;;8322724;28;20085;-69
2021/06/21 15:00:02;;;;;;;16.65;1.42;;;;;;;;;;8324426;28;20383;-69
2021/06/21 15:04:08;;;;;;;9.02;2.03;;;;;;;;;;8325152;28;20106;-68
2021/06/21 15:08:16;;;;;;;5.88;1.00;;;;;;;;;;8325603;28;20381;-69
2021/06/21 15:12:21;;;;;;;8.80;1.35;;;;;;;;;;8324335;28;20475;-70
2021/06/21 15:16:27;;;;;;;6.25;1.40;;;;;;;;;;8324753;28;20044;-69
2021/06/21 15:20:37;;;;;;;4.45;1.35;;;;;;;;;;8325440;28;20465;-68
2021/06/21 15:24:42;;;;;;;5.90;1.13;;;;;;;;;;8324425;28;20459;-67
2021/06/21 15:28:48;;;;;;;5.38;1.35;;;;;;;;;;8325068;28;20067;-67
2021/06/21 15:32:54;;;;;;;4.50;1.40;;;;;;;;;;8324249;28;20478;-68
2021/06/21 15:37:00;;;;;;;5.50;1.80;;;;;;;;;;8306116;28;20466;-68
2021/06/21 15:41:05;;;;;;;9.40;2.05;;;;;;;;;;8324202;28;20366;-68
2021/06/21 15:45:13;;;;;;;2.97;1.00;;;;;;;;;;8326173;28;20458;-68
2021/06/21 15:49:18;;;;;;;3.38;1.17;;;;;;;;;;8324297;28;20055;-67
2021/06/21 15:53:23;;;;;;;14.02;1.60;;;;;;;;;;8326452;28;20458;-69
2021/06/21 15:57:28;;;;;;;9.82;1.38;;;;;;;;;;8306497;28;20412;-68
2021/06/21 16:01:34;;;;;;;13.48;1.50;;;;;;;;;;8324961;28;20478;-68
2021/06/21 16:05:41;;;;;;;7.60;1.30;;;;;;;;;;8306016;28;20458;-67
2021/06/21 16:09:46;;;;;;;7.18;1.15;;;;;;;;;;8305406;28;20982;-69
2021/06/21 16:13:52;;;;;;;9.30;1.50;;;;;;;;;;8305265;28;20497;-68
2021/06/21 16:17:59;;;;;;;4.45;1.30;;;;;;;;;;8304623;28;20398;-69
2021/06/21 16:22:05;;;;;;;5.40;1.40;;;;;;;;;;8305538;28;20463;-68
2021/06/21 16:26:10;;;;;;;7.60;1.80;;;;;;;;;;8323678;28;20401;-68
2021/06/21 16:30:20;;;;;;;5.13;1.65;;;;;;;;;;8324273;28;20358;-69
2021/06/21 16:34:26;;;;;;;4.20;1.60;;;;;;;;;;8323420;28;20360;-67
2021/06/21 16:38:35;;;;;;;5.05;1.55;;;;;;;;;;8324052;28;20473;-68
2021/06/21 16:42:40;;;;;;;8.77;1.67;;;;;;;;;;8324415;28;20176;-67
2021/06/21 16:46:45;;;;;;;6.20;1.30;;;;;;;;;;8323453;28;20052;-68
2021/06/21 16:50:52;;;;;;;11.30;1.83;;;;;;;;;;8321840;28;20391;-68
2021/06/21 16:54:56;;;;;;;4.20;1.25;;;;;;;;;;8319234;28;20485;-68
2021/06/21 16:59:02;;;;;;;7.78;1.55;;;;;;;;;;8320991;28;20370;-68
2021/06/21 17:03:07;;;;;;;9.10;1.77;;;;;;;;;;8324151;28;20389;-67
2021/06/21 17:07:12;;;;;;;8.45;1.20;;;;;;;;;;8323957;28;20505;-67
2021/06/21 17:11:20;;;;;;;6.95;1.30;;;;;;;;;;8302815;28;20497;-68
2021/06/21 17:15:26;;;;;;;5.80;1.70;;;;;;;;;;8322613;28;20459;-66
2021/06/21 17:19:32;;;;;;;5.73;2.03;;;;;;;;;;8324902;28;20471;-67
2021/06/21 17:23:39;;;;;;;4.55;1.35;;;;;;;;;;8327423;28;20812;-67
2021/06/21 17:27:44;;;;;;;8.43;1.73;;;;;;;;;;8328439;28;20454;-69
2021/06/21 17:31:50;;;;;;;12.63;2.67;;;;;;;;;;8326237;28;20429;-69
2021/06/21 17:35:56;;;;;;;5.43;1.95;;;;;;;;;;8329378;28;20455;-69
2021/06/21 17:40:01;;;;;;;12.70;1.80;;;;;;;;;;8328260;28;20474;-71
2021/06/21 17:44:06;;;;;;;3.92;1.33;;;;;;;;;;8327546;28;20051;-70
2021/06/21 17:48:11;;;;;;;3.00;1.38;;;;;;;;;;8327316;28;20596;-70
2021/06/21 17:52:16;;;;;;;6.45;1.83;;;;;;;;;;8326849;28;20364;-68
2021/06/21 17:56:21;;;;;;;7.57;1.70;;;;;;;;;;8325313;28;20405;-68
2021/06/21 18:00:37;;;;;;;5.03;2.17;;;;;;;;;;8326680;28;20048;-69
2021/06/21 18:04:43;;;;;;;10.15;2.08;;;;;;;;;;8328571;28;20040;-68
2021/06/21 18:08:49;;;;;;;7.20;1.98;;;;;;;;;;8326540;28;20354;-67
2021/06/21 18:12:57;;;;;;;8.38;1.75;;;;;;;;;;8326143;28;20490;-69
2021/06/21 18:17:03;;;;;;;9.75;1.83;;;;;;;;;;8326791;28;20048;-67
2021/06/21 18:21:09;;;;;;;14.40;2.30;;;;;;;;;;8326118;28;20419;-67
2021/06/21 18:25:16;;;;;;;7.32;1.77;;;;;;;;;;8326946;28;20496;-68
2021/06/21 18:29:22;;;;;;;9.57;2.47;;;;;;;;;;8327035;28;20374;-67
2021/06/21 18:33:28;;;;;;;7.32;1.90;;;;;;;;;;8325418;28;20489;-66
2021/06/21 18:37:34;;;;;;;11.65;2.05;;;;;;;;;;8325816;28;20056;-70
2021/06/21 18:41:39;;;;;;;7.22;1.77;;;;;;;;;;8308213;28;20401;-70
2021/06/21 18:45:44;;;;;;;10.88;2.67;;;;;;;;;;8327706;28;20344;-69
2021/06/21 18:49:51;;;;;;;16.95;2.97;;;;;;;;;;8325793;28;20048;-69
2021/06/21 18:53:57;;;;;;;9.45;2.10;;;;;;;;;;8325004;28;20337;-70
2021/06/21 18:58:04;;;;;;;6.93;1.85;;;;;;;;;;8325347;28;20075;-68
2021/06/21 19:02:10;;;;;;;9.35;2.97;;;;;;;;;;8325266;28;20111;-66
2021/06/21 19:06:15;;;;;;;16.73;4.35;;;;;;;;;;8323776;28;20048;-69
2021/06/21 19:10:25;;;;;;;12.18;3.38;;;;;;;;;;8323974;28;20372;-66
2021/06/21 19:14:31;;;;;;;6.18;2.42;;;;;;;;;;8324506;28;20470;-70
2021/06/21 19:18:36;;;;;;;9.70;3.20;;;;;;;;;;8326305;28;20382;-69
2021/06/21 19:22:43;;;;;;;10.70;2.70;;;;;;;;;;8307108;28;20417;-69
2021/06/21 19:26:47;;;;;;;6.75;2.22;;;;;;;;;;8324214;28;20446;-67
2021/06/21 19:30:52;;;;;;;14.80;2.80;;;;;;;;;;8305060;28;20478;-67
2021/06/21 19:34:57;;;;;;;17.92;3.58;;;;;;;;;;8322373;28;20383;-67
2021/06/21 19:39:05;;;;;;;10.73;3.30;;;;;;;;;;8322316;28;20374;-67
2021/06/21 19:43:12;;;;;;;12.15;2.58;;;;;;;;;;8322244;28;20390;-67
2021/06/21 19:47:18;;;;;;;8.65;2.80;;;;;;;;;;8324363;28;20481;-67
2021/06/21 19:51:23;;;;;;;11.20;2.60;;;;;;;;;;8323518;28;20482;-68
2021/06/21 19:55:30;;;;;;;9.30;2.80;;;;;;;;;;8326382;28;20340;-68
2021/06/21 19:59:35;;;;;;;10.27;2.78;;;;;;;;;;8322179;28;20351;-68
2021/06/21 20:03:41;;;;;;;12.15;3.20;;;;;;;;;;8307026;28;20413;-68
2021/06/21 20:07:47;;;;;;;9.20;3.00;;;;;;;;;;8305742;28;20482;-68
2021/06/21 20:11:53;;;;;;;17.40;6.03;;;;;;;;;;8305950;28;20505;-68
2021/06/21 20:16:01;;;;;;;9.65;3.25;;;;;;;;;;8322293;28;21109;-68
2021/06/21 20:20:10;;;;;;;10.88;3.25;;;;;;;;;;8305513;28;20478;-68
2021/06/21 20:24:15;;;;;;;9.10;3.38;;;;;;;;;;8320313;28;20372;-68
2021/06/21 20:28:20;;;;;;;10.70;2.92;;;;;;;;;;8322806;28;20459;-68
2021/06/21 20:32:25;;;;;;;11.10;2.90;;;;;;;;;;8322474;28;20483;-68
2021/06/21 20:36:34;;;;;;;10.02;3.10;;;;;;;;;;8304381;28;20364;-67
2021/06/21 20:40:41;;;;;;;17.58;3.22;;;;;;;;;;8304218;28;20393;-68
2021/06/21 20:44:47;;;;;;;8.82;3.03;;;;;;;;;;8323856;28;20374;-68
2021/06/21 20:48:51;;;;;;;17.30;3.50;;;;;;;;;;8321591;28;20435;-69
2021/06/21 20:52:58;;;;;;;5.90;2.88;;;;;;;;;;8288838;28;20047;-67
2021/06/21 20:57:05;;;;;;;8.30;3.15;;;;;;;;;;8327855;28;20459;-67
2021/06/21 21:01:11;;;;;;;14.68;3.47;;;;;;;;;;8329893;28;20493;-69
2021/06/21 21:05:16;;;;;;;8.75;3.10;;;;;;;;;;8329814;28;20351;-67
2021/06/21 21:09:23;;;;;;;12.18;3.25;;;;;;;;;;8330503;28;20446;-68
2021/06/21 21:13:28;;;;;;;7.20;3.05;;;;;;;;;;8329604;28;20360;-68
2021/06/21 21:17:33;;;;;;;18.42;3.45;;;;;;;;;;8310142;28;20383;-68
2021/06/21 21:21:44;;;;;;;14.93;3.40;;;;;;;;;;8328041;28;20405;-67
2021/06/21 21:25:51;;;;;;;9.35;3.63;;;;;;;;;;8330792;28;20473;-68
2021/06/21 21:29:57;;;;;;;7.28;3.10;;;;;;;;;;8327689;28;20496;-68
2021/06/21 21:34:02;;;;;;;14.15;3.10;;;;;;;;;;8327280;28;20455;-67
2021/06/21 21:38:07;;;;;;;13.38;3.30;;;;;;;;;;8328418;28;20106;-67
2021/06/21 21:42:12;;;;;;;8.95;3.38;;;;;;;;;;8327701;28;20052;-68
2021/06/21 21:46:18;;;;;;;13.52;3.63;;;;;;;;;;8328028;28;20474;-68
2021/06/21 21:50:23;;;;;;;11.43;3.05;;;;;;;;;;8326738;28;20474;-68
2021/06/21 21:54:29;;;;;;;10.32;3.28;;;;;;;;;;8325459;28;21113;-67
2021/06/21 21:58:34;;;;;;;10.38;3.38;;;;;;;;;;8327851;28;20348;-67
2021/06/21 22:02:40;;;;;;;8.40;3.22;;;;;;;;;;8308805;28;20417;-68
2021/06/21 22:06:45;;;;;;;7.82;3.63;;;;;;;;;;8323832;28;20048;-67
2021/06/21 22:10:52;;;;;;;12.80;3.28;;;;;;;;;;8311427;28;20471;-68
2021/06/21 22:14:58;;;;;;;9.63;3.67;;;;;;;;;;8308911;28;20351;-67
2021/06/21 22:19:05;;;;;;;12.35;3.80;;;;;;;;;;8326490;28;20493;-68
2021/06/21 22:23:14;;;;;;;18.52;3.83;;;;;;;;;;8308927;28;20056;-68
2021/06/21 22:27:20;;;;;;;13.30;3.53;;;;;;;;;;8326014;28;20359;-68
2021/06/21 22:31:25;;;;;;;7.57;3.83;;;;;;;;;;8309045;28;20078;-67
2021/06/21 22:35:30;;;;;;;7.47;3.20;;;;;;;;;;8326305;28;20490;-68
2021/06/21 22:39:36;;;;;;;10.23;3.42;;;;;;;;;;8325125;28;20378;-68
2021/06/21 22:43:42;;;;;;;8.25;3.22;;;;;;;;;;8324043;28;20071;-69
2021/06/21 22:47:48;;;;;;;11.82;4.05;;;;;;;;;;8307986;28;20471;-67
2021/06/21 22:51:54;;;;;;;14.73;3.97;;;;;;;;;;8324430;28;20490;-68
2021/06/21 22:55:59;;;;;;;11.18;3.45;;;;;;;;;;8326501;28;20052;-68
2021/06/21 23:00:08;;;;;;;9.85;3.40;;;;;;;;;;8326995;28;20370;-67
2021/06/21 23:04:14;;;;;;;11.25;3.60;;;;;;;;;;8325337;28;20375;-71
2021/06/21 23:08:19;;;;;;;8.10;3.50;;;;;;;;;;8324502;28;20505;-67
2021/06/21 23:12:24;;;;;;;20.67;4.72;;;;;;;;;;8325197;28;20370;-68
2021/06/21 23:16:31;;;;;;;13.27;3.75;;;;;;;;;;8325478;28;20455;-67
2021/06/21 23:20:36;;;;;;;15.95;4.10;;;;;;;;;;8324856;28;20059;-68
2021/06/21 23:24:41;;;;;;;16.52;3.88;;;;;;;;;;8307191;28;20383;-68
2021/06/21 23:28:50;;;;;;;12.40;4.50;;;;;;;;;;8324829;28;20478;-68
2021/06/21 23:32:57;;;;;;;8.65;3.20;;;;;;;;;;8324214;28;20554;-68
2021/06/21 23:37:05;;;;;;;7.73;3.87;;;;;;;;;;8306710;28;20070;-67
2021/06/21 23:41:10;;;;;;;10.23;3.97;;;;;;;;;;8323871;28;20455;-67
2021/06/21 23:45:16;;;;;;;10.70;3.67;;;;;;;;;;8324227;28;20362;-67
2021/06/21 23:49:22;;;;;;;7.25;4.35;;;;;;;;;;8324545;28;20374;-68
2021/06/21 23:53:27;;;;;;;8.30;3.60;;;;;;;;;;8324218;28;20339;-68
2021/06/21 23:57:32;;;;;;;12.38;3.80;;;;;;;;;;8307223;28;20442;-67
